createdAt,value
2018-08-24T00:00:39.241Z,91.00
2018-08-24T00:03:22.560Z,90.60
2018-08-24T00:05:52.243Z,90.40
2018-08-24T00:08:21.199Z,90.60
2018-08-24T00:10:49.625Z,90.50
2018-08-24T00:13:18.947Z,90.50
2018-08-24T00:15:47.217Z,90.20
2018-08-24T00:18:15.443Z,90.20
2018-08-24T00:20:46.399Z,90.20
2018-08-24T00:23:16.118Z,90.40
2018-08-24T00:25:44.999Z,90.70
2018-08-24T00:31:38.685Z,90.70
2018-08-24T00:34:06.897Z,90.90
2018-08-24T00:36:35.488Z,91.00
2018-08-24T00:39:04.834Z,90.90
2018-08-24T00:48:38.593Z,90.10
2018-08-24T00:51:07.139Z,90.20
2018-08-24T00:53:37.630Z,90.10
2018-08-24T01:02:50.282Z,89.50
2018-08-24T01:05:19.506Z,89.10
2018-08-24T01:08:17.717Z,89.50
2018-08-24T01:10:46.821Z,90.10
2018-08-24T01:13:15.605Z,89.70
2018-08-24T01:15:57.733Z,89.60
2018-08-24T01:18:45.897Z,89.30
2018-08-24T01:21:14.220Z,89.80
2018-08-24T01:23:43.404Z,89.70
2018-08-24T01:26:11.703Z,88.80
2018-08-24T01:28:42.149Z,88.20
2018-08-24T01:31:10.418Z,88.40
2018-08-24T01:33:38.722Z,88.00
2018-08-24T01:36:09.384Z,87.50
2018-08-24T01:38:38.434Z,88.80
2018-08-24T01:41:07.010Z,87.80
2018-08-24T01:44:38.493Z,87.80
2018-08-24T01:47:08.659Z,89.00
2018-08-24T01:49:37.078Z,89.90
2018-08-24T01:52:06.008Z,90.10
2018-08-24T01:54:35.597Z,90.30
2018-08-24T01:57:03.739Z,90.10
2018-08-24T01:59:31.931Z,90.30
2018-08-24T02:02:00.105Z,90.50
2018-08-24T02:04:28.320Z,90.40
2018-08-24T02:06:56.511Z,90.60
2018-08-24T02:09:28.238Z,90.50
2018-08-24T02:11:56.431Z,90.60
2018-08-24T02:14:42.408Z,90.70
2018-08-24T02:17:28.364Z,90.80
2018-08-24T02:20:14.252Z,90.60
2018-08-24T02:22:42.429Z,90.70
2018-08-24T02:25:10.600Z,90.90
2018-08-24T02:27:38.754Z,90.40
2018-08-24T02:30:06.908Z,89.20
2018-08-24T02:32:35.085Z,88.80
2018-08-24T02:35:04.454Z,89.00
2018-08-24T02:37:32.613Z,88.70
2018-08-24T02:40:00.778Z,88.00
2018-08-24T02:42:28.944Z,88.30
2018-08-24T02:44:57.124Z,88.60
2018-08-24T02:47:25.275Z,88.40
2018-08-24T02:49:53.602Z,88.30
2018-08-24T02:52:24.053Z,88.60
2018-08-24T02:54:52.474Z,89.50
2018-08-24T02:57:21.062Z,90.10
2018-08-24T02:59:49.230Z,90.20
2018-08-24T03:02:19.091Z,89.90
2018-08-24T03:04:47.266Z,90.00
2018-08-24T03:07:15.427Z,90.10
2018-08-24T03:13:06.896Z,90.20
2018-08-24T03:21:55.300Z,90.10
2018-08-24T03:24:26.669Z,90.20
2018-08-24T03:26:54.841Z,90.10
2018-08-24T03:29:23.294Z,90.10
2018-08-24T03:31:51.676Z,90.40
2018-08-24T03:34:19.823Z,89.20
2018-08-24T03:36:48.994Z,89.40
2018-08-24T03:39:17.168Z,90.10
2018-08-24T03:41:45.603Z,89.80
2018-08-24T03:44:19.532Z,89.70
2018-08-24T03:46:48.091Z,89.40
2018-08-24T03:49:16.247Z,89.00
2018-08-24T03:51:44.410Z,88.80
2018-08-24T03:57:16.733Z,89.30
2018-08-24T04:00:46.573Z,88.80
2018-08-24T04:06:36.040Z,89.70
2018-08-24T04:09:05.425Z,89.40
2018-08-24T04:11:59.274Z,89.30
2018-08-24T04:14:05.095Z,88.80
2018-08-24T04:26:42.523Z,89.60
2018-08-24T04:29:10.966Z,89.40
2018-08-24T04:31:40.745Z,88.00
2018-08-24T04:34:08.936Z,87.10
2018-08-24T04:36:37.136Z,87.20
2018-08-24T04:39:09.919Z,86.10
2018-08-24T04:41:39.296Z,84.40
2018-08-24T04:44:07.682Z,82.70
2018-08-24T04:46:37.014Z,82.20
2018-08-24T04:49:05.300Z,80.70
2018-08-24T04:51:33.913Z,79.20
2018-08-24T04:54:02.423Z,79.00
2018-08-24T04:56:31.141Z,78.60
2018-08-24T04:59:00.653Z,79.00
2018-08-24T05:01:31.609Z,79.80
2018-08-24T05:04:00.719Z,79.80
2018-08-24T05:06:29.846Z,80.30
2018-08-24T05:08:58.977Z,80.20
2018-08-24T05:11:27.259Z,81.00
2018-08-24T05:13:55.605Z,82.30
2018-08-24T05:19:55.855Z,81.50
2018-08-24T05:25:45.632Z,79.50
2018-08-24T05:33:45.419Z,76.30
2018-08-24T05:36:28.760Z,75.10
2018-08-24T05:38:57.093Z,74.70
2018-08-24T05:41:27.622Z,75.00
2018-08-24T05:43:56.219Z,74.30
2018-08-24T05:49:28.240Z,74.40
2018-08-24T05:51:56.804Z,74.70
2018-08-24T05:54:25.020Z,75.20
2018-08-24T05:56:55.110Z,74.80
2018-08-24T05:59:23.624Z,74.40
2018-08-24T06:05:13.018Z,73.20
2018-08-24T06:07:41.783Z,73.10
2018-08-24T06:10:09.956Z,72.70
2018-08-24T06:26:04.703Z,71.70
2018-08-24T06:28:32.915Z,71.90
2018-08-24T06:31:01.116Z,71.70
2018-08-24T06:33:29.803Z,70.10
2018-08-24T06:35:59.061Z,69.40
2018-08-24T06:38:28.630Z,67.60
2018-08-24T06:40:57.267Z,66.60
2018-08-24T06:43:25.501Z,67.40
2018-08-24T06:52:39.379Z,66.20
2018-08-24T06:55:10.586Z,66.30
2018-08-24T06:58:11.573Z,66.60
2018-08-24T07:00:43.858Z,66.40
2018-08-24T07:06:33.970Z,65.90
2018-08-24T07:09:02.862Z,67.70
2018-08-24T07:11:43.394Z,68.00
2018-08-24T07:14:11.562Z,67.80
2018-08-24T07:16:39.706Z,68.00
2018-08-24T07:19:09.180Z,68.30
2018-08-24T07:24:58.989Z,70.30
2018-08-24T07:27:27.171Z,69.20
2018-08-24T07:29:55.389Z,67.10
2018-08-24T07:32:23.912Z,67.40
2018-08-24T07:34:52.404Z,65.70
2018-08-24T07:40:42.817Z,63.90
2018-08-24T07:46:51.361Z,58.50
2018-08-24T07:49:19.537Z,52.00
2018-08-24T07:55:24.762Z,51.40
2018-08-24T07:57:53.497Z,50.80
2018-08-24T08:00:34.006Z,49.30
2018-08-24T08:03:24.917Z,46.80
2018-08-24T08:05:56.200Z,44.60
2018-08-24T08:08:25.409Z,42.70
2018-08-24T08:10:53.608Z,41.20
2018-08-24T08:13:22.132Z,42.40
2018-08-24T08:15:50.302Z,42.50
2018-08-24T08:18:18.639Z,41.70
2018-08-24T08:20:46.839Z,43.80
2018-08-24T08:23:15.049Z,46.20
2018-08-24T08:25:45.266Z,48.70
2018-08-24T08:28:13.471Z,49.60
2018-08-24T08:30:42.413Z,47.60
2018-08-24T08:33:10.963Z,46.50
2018-08-24T08:35:41.975Z,45.80
2018-08-24T08:38:11.082Z,44.70
2018-08-24T08:40:39.440Z,44.30
2018-08-24T08:43:13.204Z,47.40
2018-08-24T08:45:41.670Z,49.60
2018-08-24T08:48:10.748Z,52.00
2018-08-24T08:50:39.042Z,50.80
2018-08-24T08:53:07.412Z,49.20
2018-08-24T09:05:40.302Z,53.90
2018-08-24T09:08:08.483Z,55.70
2018-08-24T09:10:36.656Z,56.70
2018-08-24T09:13:07.918Z,56.10
2018-08-24T09:15:36.133Z,57.00
2018-08-24T09:18:23.631Z,57.50
2018-08-24T09:21:10.832Z,57.30
2018-08-24T09:23:59.390Z,57.40
2018-08-24T09:27:03.187Z,57.80
2018-08-24T09:29:31.525Z,57.80
2018-08-24T09:32:02.621Z,57.50
2018-08-24T09:34:32.430Z,56.10
2018-08-24T09:36:59.527Z,56.40
2018-08-24T09:39:32.151Z,54.90
2018-08-24T09:42:01.065Z,54.30
2018-08-24T09:44:29.509Z,54.50
2018-08-24T09:47:15.433Z,51.30
2018-08-24T09:49:43.686Z,48.20
2018-08-24T09:53:06.127Z,47.60
2018-08-24T09:55:40.189Z,47.20
2018-08-24T09:58:10.059Z,47.10
2018-08-24T10:00:57.561Z,48.40
2018-08-24T10:03:43.559Z,50.30
2018-08-24T10:06:32.719Z,49.20
2018-08-24T10:09:06.587Z,47.80
2018-08-24T10:11:33.751Z,48.50
2018-08-24T10:14:02.127Z,48.50
2018-08-24T10:16:30.479Z,47.40
2018-08-24T10:18:58.702Z,47.00
2018-08-24T10:21:31.896Z,48.00
2018-08-24T10:23:59.203Z,48.20
2018-08-24T10:26:28.220Z,50.00
2018-08-24T10:28:56.450Z,51.40
2018-08-24T10:31:25.801Z,52.60
2018-08-24T10:33:58.070Z,52.50
2018-08-24T10:36:37.139Z,52.60
2018-08-24T10:39:08.972Z,51.20
2018-08-24T10:41:38.391Z,50.70
2018-08-24T10:44:06.676Z,50.00
2018-08-24T10:46:34.949Z,49.10
2018-08-24T10:49:03.312Z,49.70
2018-08-24T10:51:31.666Z,49.50
2018-08-24T10:54:05.066Z,48.10
2018-08-24T10:56:36.166Z,47.00
2018-08-24T10:59:04.429Z,46.10
2018-08-24T11:01:34.464Z,47.10
2018-08-24T11:04:09.765Z,48.70
2018-08-24T11:06:41.324Z,50.80
2018-08-24T11:09:10.316Z,51.20
2018-08-24T11:11:40.860Z,49.70
2018-08-24T11:14:11.684Z,49.10
2018-08-24T11:16:41.207Z,45.50
2018-08-24T11:19:09.350Z,46.10
2018-08-24T11:21:38.480Z,47.40
2018-08-24T11:24:08.080Z,48.50
2018-08-24T11:26:36.498Z,49.90
2018-08-24T11:29:05.212Z,51.60
2018-08-24T11:31:33.458Z,52.30
2018-08-24T11:34:01.757Z,53.80
2018-08-24T11:36:33.500Z,53.70
2018-08-24T11:39:05.914Z,53.30
2018-08-24T11:41:36.352Z,52.90
2018-08-24T11:44:07.435Z,52.70
2018-08-24T11:46:38.980Z,52.90
2018-08-24T11:49:07.476Z,53.50
2018-08-24T11:51:36.258Z,54.20
2018-08-24T11:54:04.987Z,55.90
2018-08-24T11:56:33.838Z,57.00
2018-08-24T11:59:09.944Z,55.20
2018-08-24T12:01:38.117Z,54.40
2018-08-24T12:04:06.662Z,54.30
2018-08-24T12:06:34.939Z,53.90
2018-08-24T12:09:06.251Z,53.50
2018-08-24T12:11:39.117Z,53.50
2018-08-24T12:14:09.084Z,53.40
2018-08-24T12:16:37.257Z,53.10
2018-08-24T12:19:05.418Z,53.60
2018-08-24T12:21:36.231Z,53.50
2018-08-24T12:24:05.632Z,54.20
2018-08-24T12:26:34.430Z,53.50
2018-08-24T12:29:03.569Z,53.00
2018-08-24T12:31:34.682Z,56.00
2018-08-24T12:34:26.741Z,55.90
2018-08-24T12:36:55.050Z,55.70
2018-08-24T12:39:30.250Z,55.30
2018-08-24T12:42:03.781Z,51.70
2018-08-24T12:44:31.603Z,47.20
2018-08-24T12:47:01.398Z,45.90
2018-08-24T12:49:30.505Z,44.40
2018-08-24T12:52:01.272Z,47.30
2018-08-24T12:54:27.991Z,48.70
2018-08-24T12:56:57.433Z,48.20
2018-08-24T12:59:29.892Z,46.90
2018-08-24T13:01:58.516Z,46.50
2018-08-24T13:04:30.283Z,45.80
2018-08-24T13:06:58.631Z,44.90
2018-08-24T13:09:33.760Z,46.10
2018-08-24T13:11:57.835Z,45.50
2018-08-24T13:14:27.591Z,46.50
2018-08-24T13:16:55.830Z,45.70
2018-08-24T13:19:24.057Z,45.00
2018-08-24T13:22:06.477Z,45.60
2018-08-24T13:24:34.762Z,46.60
2018-08-24T13:27:03.394Z,45.50
2018-08-24T13:29:31.766Z,45.40
2018-08-24T13:32:02.858Z,45.40
2018-08-24T13:34:31.599Z,45.90
2018-08-24T13:37:00.915Z,46.30
2018-08-24T13:39:31.151Z,46.50
2018-08-24T13:42:00.960Z,48.20
2018-08-24T13:44:29.372Z,49.00
2018-08-24T13:46:58.333Z,48.50
2018-08-24T13:49:27.069Z,49.20
2018-08-24T13:51:55.434Z,48.30
2018-08-24T13:54:23.848Z,47.60
2018-08-24T13:56:53.961Z,48.00
2018-08-24T13:59:27.961Z,49.50
2018-08-24T14:01:57.206Z,50.10
2018-08-24T14:04:25.417Z,49.30
2018-08-24T14:06:53.554Z,48.30
2018-08-24T14:09:24.257Z,49.20
2018-08-24T14:11:54.959Z,48.50
2018-08-24T14:14:23.645Z,47.60
2018-08-24T14:16:51.809Z,47.10
2018-08-24T14:19:21.870Z,47.20
2018-08-24T14:21:50.323Z,45.50
2018-08-24T14:24:21.684Z,46.00
2018-08-24T14:26:51.230Z,46.90
2018-08-24T14:29:19.953Z,46.40
2018-08-24T14:31:50.904Z,46.10
2018-08-24T14:34:19.029Z,46.50
2018-08-24T14:36:51.470Z,45.90
2018-08-24T14:39:20.977Z,45.50
2018-08-24T14:41:52.033Z,45.70
2018-08-24T14:44:25.917Z,45.10
2018-08-24T14:46:59.547Z,47.10
2018-08-24T14:49:30.898Z,47.30
2018-08-24T14:52:19.678Z,47.00
2018-08-24T14:54:49.151Z,46.20
2018-08-24T14:57:22.423Z,46.20
2018-08-24T14:59:51.616Z,45.10
2018-08-24T15:02:21.463Z,44.90
2018-08-24T15:04:51.524Z,44.90
2018-08-24T15:07:35.630Z,45.50
2018-08-24T15:10:14.376Z,44.40
2018-08-24T15:12:46.251Z,43.90
2018-08-24T15:15:15.609Z,44.90
2018-08-24T15:17:45.779Z,43.90
2018-08-24T15:20:19.634Z,44.30
2018-08-24T15:22:50.331Z,44.60
2018-08-24T15:25:26.430Z,44.70
2018-08-24T15:27:54.856Z,44.90
2018-08-24T15:30:26.692Z,45.60
2018-08-24T15:33:00.332Z,45.10
2018-08-24T15:35:29.678Z,45.00
2018-08-24T15:37:58.375Z,44.90
2018-08-24T15:40:26.590Z,44.90
2018-08-24T15:42:55.807Z,44.90
2018-08-24T15:45:24.295Z,44.70
2018-08-24T15:47:53.487Z,43.80
2018-08-24T15:50:23.848Z,43.90
2018-08-24T15:52:52.287Z,45.00
2018-08-24T15:55:21.648Z,45.10
2018-08-24T15:57:50.785Z,44.90
2018-08-24T16:00:20.725Z,44.90
2018-08-24T16:02:49.690Z,45.90
2018-08-24T16:05:17.913Z,46.20
2018-08-24T16:07:46.952Z,46.20
2018-08-24T16:10:17.561Z,45.90
2018-08-24T16:12:45.993Z,46.00
2018-08-24T16:15:18.184Z,45.50
2018-08-24T16:18:04.452Z,45.60
2018-08-24T16:20:32.779Z,45.20
2018-08-24T16:23:01.521Z,45.80
2018-08-24T16:25:29.878Z,46.40
2018-08-24T16:27:58.191Z,46.50
2018-08-24T16:30:26.356Z,46.90
2018-08-24T16:32:54.624Z,46.90
2018-08-24T16:35:33.653Z,47.00
2018-08-24T16:38:01.926Z,47.10
2018-08-24T16:40:30.449Z,47.40
2018-08-24T16:42:58.999Z,47.60
2018-08-24T16:45:29.801Z,47.80
2018-08-24T16:47:58.550Z,47.20
2018-08-24T16:50:27.988Z,47.90
2018-08-24T16:52:57.305Z,47.90
2018-08-24T16:55:25.462Z,48.10
2018-08-24T16:57:55.087Z,48.60
2018-08-24T17:00:24.161Z,49.00
2018-08-24T17:02:53.155Z,48.20
2018-08-24T17:05:22.765Z,49.10
2018-08-24T17:07:52.032Z,49.60
2018-08-24T17:10:21.436Z,50.00
2018-08-24T17:12:51.413Z,50.20
2018-08-24T17:15:21.606Z,50.40
2018-08-24T17:17:51.568Z,50.90
2018-08-24T17:20:20.080Z,51.10
2018-08-24T17:22:50.599Z,51.00
2018-08-24T17:25:18.748Z,51.10
2018-08-24T17:27:48.500Z,51.40
2018-08-24T17:30:36.477Z,51.30
2018-08-24T17:33:04.664Z,51.20
2018-08-24T17:35:39.315Z,51.40
2018-08-24T17:38:12.409Z,51.40
2018-08-24T17:40:52.933Z,51.70
2018-08-24T17:43:25.696Z,51.30
2018-08-24T17:45:57.659Z,51.30
2018-08-24T17:49:05.410Z,50.90
2018-08-24T17:51:35.232Z,51.70
2018-08-24T17:54:04.572Z,50.80
2018-08-24T17:56:33.198Z,50.80
2018-08-24T18:01:36.465Z,50.40
2018-08-24T18:04:08.721Z,50.50
2018-08-24T18:06:35.783Z,50.50
2018-08-24T18:09:06.711Z,50.70
2018-08-24T18:11:44.563Z,51.10
2018-08-24T18:14:21.671Z,50.60
2018-08-24T18:16:52.466Z,51.30
2018-08-24T18:19:23.255Z,50.80
2018-08-24T18:21:53.576Z,51.00
2018-08-24T18:24:21.884Z,51.00
2018-08-24T18:26:54.503Z,50.70
2018-08-24T18:29:36.322Z,50.50
2018-08-24T18:32:00.083Z,50.70
2018-08-24T18:34:29.007Z,51.10
2018-08-24T18:36:57.176Z,51.10
2018-08-24T18:39:25.665Z,50.70
2018-08-24T18:41:54.181Z,50.60
2018-08-24T18:44:22.747Z,50.90
2018-08-24T18:46:52.837Z,51.30
2018-08-24T18:49:21.057Z,51.00
2018-08-24T18:51:52.811Z,51.20
2018-08-24T18:54:28.792Z,51.50
2018-08-24T18:56:59.764Z,51.80
2018-08-24T18:59:27.816Z,52.20
2018-08-24T19:01:56.096Z,51.80
2018-08-24T19:04:24.212Z,51.90
2018-08-24T19:06:52.474Z,53.10
2018-08-24T19:09:20.597Z,52.00
2018-08-24T19:12:06.504Z,53.70
2018-08-24T19:14:34.656Z,52.30
2018-08-24T19:17:02.841Z,53.20
2018-08-24T19:19:48.676Z,52.40
2018-08-24T19:22:17.158Z,53.40
2018-08-24T19:24:45.358Z,52.70
2018-08-24T19:27:13.948Z,53.40
2018-08-24T19:29:59.841Z,53.20
2018-08-24T19:32:28.077Z,53.10
2018-08-24T19:34:56.420Z,53.30
2018-08-24T19:37:24.657Z,53.40
2018-08-24T19:40:15.618Z,53.60
2018-08-24T19:42:43.813Z,53.80
2018-08-24T19:45:11.970Z,53.80
2018-08-24T19:47:58.748Z,53.40
2018-08-24T19:50:28.307Z,53.30
2018-08-24T19:52:57.170Z,53.20
2018-08-24T19:55:26.670Z,53.10
2018-08-24T19:58:12.462Z,53.50
2018-08-24T20:00:40.847Z,53.70
2018-08-24T20:03:09.659Z,53.70
2018-08-24T20:05:38.134Z,53.80
2018-08-24T20:08:23.965Z,54.00
2018-08-24T20:10:52.404Z,54.00
2018-08-24T20:13:20.749Z,54.10
2018-08-24T20:16:07.850Z,54.40
2018-08-24T20:18:36.336Z,54.60
2018-08-24T20:21:04.710Z,55.00
2018-08-24T20:23:32.914Z,55.20
2018-08-24T20:26:01.100Z,55.30
2018-08-24T20:28:29.379Z,55.60
2018-08-24T20:30:57.946Z,55.70
2018-08-24T20:33:26.096Z,55.90
2018-08-24T20:35:54.313Z,55.80
2018-08-24T20:38:22.463Z,55.70
2018-08-24T20:40:50.736Z,55.70
2018-08-24T20:43:18.870Z,55.80
2018-08-24T20:45:47.112Z,55.90
2018-08-24T20:48:15.322Z,55.80
2018-08-24T20:50:43.776Z,56.00
2018-08-24T20:53:12.024Z,56.00
2018-08-24T20:55:40.845Z,56.00
2018-08-24T20:58:09.037Z,56.50
2018-08-24T21:00:37.165Z,56.20
2018-08-24T21:03:05.449Z,56.40
2018-08-24T21:05:33.657Z,56.70
2018-08-24T21:08:01.950Z,56.50
2018-08-24T21:10:31.917Z,56.60
2018-08-24T21:13:00.156Z,56.70
2018-08-24T21:15:28.308Z,56.90
2018-08-24T21:17:56.508Z,57.00
2018-08-24T21:20:24.813Z,57.00
2018-08-24T21:22:53.169Z,57.30
2018-08-24T21:25:21.372Z,57.40
2018-08-24T21:27:49.789Z,57.40
2018-08-24T21:30:18.117Z,57.40
2018-08-24T21:32:46.288Z,57.50
2018-08-24T21:35:14.443Z,57.80
2018-08-24T21:37:42.580Z,57.80
2018-08-24T21:40:10.719Z,58.00
2018-08-24T21:42:38.856Z,58.10
2018-08-24T21:45:06.994Z,58.10
2018-08-24T21:47:35.137Z,58.10
2018-08-24T21:50:03.352Z,57.80
2018-08-24T21:52:31.519Z,57.70
2018-08-24T21:54:59.634Z,58.00
2018-08-24T21:57:28.878Z,57.70
2018-08-24T21:59:57.230Z,57.60
2018-08-24T22:02:25.442Z,57.90
2018-08-24T22:04:53.578Z,57.60
2018-08-24T22:07:21.723Z,57.90
2018-08-24T22:09:51.337Z,58.00
2018-08-24T22:12:19.484Z,57.10
2018-08-24T22:14:47.918Z,57.10
2018-08-24T22:17:16.067Z,57.00
2018-08-24T22:19:44.265Z,56.90
2018-08-24T22:22:12.405Z,57.20
2018-08-24T22:24:41.005Z,56.90
2018-08-24T22:27:09.122Z,57.40
2018-08-24T22:29:37.257Z,56.80
2018-08-24T22:32:07.148Z,56.90
2018-08-24T22:34:37.589Z,57.10
2018-08-24T22:37:05.726Z,57.30
2018-08-24T22:39:33.953Z,57.40
2018-08-24T22:42:02.242Z,57.50
2018-08-24T22:44:30.521Z,57.50
2018-08-24T22:46:58.951Z,57.80
2018-08-24T22:49:27.076Z,57.70
2018-08-24T22:51:55.184Z,57.90
2018-08-24T22:54:23.320Z,57.90
2018-08-24T22:56:52.901Z,58.00
2018-08-24T22:59:21.286Z,58.10
2018-08-24T23:01:49.418Z,58.30
2018-08-24T23:04:17.551Z,58.60
2018-08-24T23:06:45.701Z,58.80
2018-08-24T23:09:13.843Z,58.90
2018-08-24T23:11:41.975Z,58.90
2018-08-24T23:14:10.163Z,58.90
2018-08-24T23:16:38.401Z,59.20
2018-08-24T23:19:09.520Z,59.50
2018-08-24T23:21:37.917Z,59.20
2018-08-24T23:24:06.045Z,59.30
2018-08-24T23:26:34.193Z,59.40
2018-08-24T23:29:02.335Z,59.50
2018-08-24T23:31:30.493Z,59.20
2018-08-24T23:33:58.640Z,59.00
2018-08-24T23:36:26.773Z,59.30
2018-08-24T23:38:54.962Z,59.40
2018-08-24T23:41:23.395Z,59.40
2018-08-24T23:43:52.700Z,59.00
2018-08-24T23:46:21.084Z,59.10
2018-08-24T23:48:49.225Z,59.50
2018-08-24T23:51:17.365Z,59.90
2018-08-24T23:53:45.546Z,60.10
2018-08-24T23:56:13.696Z,60.20
2018-08-24T23:58:41.827Z,60.50
